createdAt,value
2017-06-22T00:00:18.530Z,3.90
2017-06-22T00:02:44.535Z,4.00
2017-06-22T00:05:10.531Z,4.20
2017-06-22T00:07:36.543Z,6.03
2017-06-22T00:10:02.519Z,3.80
2017-06-22T00:12:28.538Z,4.43
2017-06-22T00:14:54.513Z,4.23
2017-06-22T00:17:20.469Z,4.50
2017-06-22T00:19:46.462Z,4.00
2017-06-22T00:22:12.418Z,6.60
2017-06-22T00:24:38.434Z,4.43
2017-06-22T00:27:05.151Z,5.03
2017-06-22T00:29:31.185Z,4.23
2017-06-22T00:31:57.146Z,4.40
2017-06-22T00:34:23.108Z,3.60
2017-06-22T00:36:49.142Z,3.57
2017-06-22T00:39:15.118Z,4.40
2017-06-22T00:41:41.142Z,3.90
2017-06-22T00:44:07.123Z,5.17
2017-06-22T00:46:33.877Z,3.90
2017-06-22T00:48:59.855Z,4.30
2017-06-22T00:51:26.643Z,4.13
2017-06-22T00:53:52.630Z,5.73
2017-06-22T00:56:18.619Z,4.07
2017-06-22T00:58:44.625Z,6.73
2017-06-22T01:01:10.587Z,4.47
2017-06-22T01:03:36.609Z,4.10
2017-06-22T01:06:02.626Z,3.90
2017-06-22T01:08:28.671Z,4.00
2017-06-22T01:10:54.643Z,4.23
2017-06-22T01:13:20.615Z,4.10
2017-06-22T01:15:46.619Z,4.30
2017-06-22T01:18:12.581Z,6.33
2017-06-22T01:20:38.578Z,4.03
2017-06-22T01:23:04.591Z,4.90
2017-06-22T01:25:30.610Z,4.10
2017-06-22T01:27:57.322Z,6.20
2017-06-22T01:30:23.310Z,4.60
2017-06-22T01:32:49.270Z,3.50
2017-06-22T01:35:15.275Z,4.10
2017-06-22T01:37:41.231Z,3.83
2017-06-22T01:40:07.254Z,3.70
2017-06-22T01:42:33.222Z,3.70
2017-06-22T01:44:59.192Z,6.30
2017-06-22T01:47:25.282Z,4.80
2017-06-22T01:49:51.274Z,3.37
2017-06-22T01:52:17.287Z,4.33
2017-06-22T01:54:43.250Z,4.43
2017-06-22T01:57:09.271Z,3.70
2017-06-22T01:59:35.288Z,3.47
2017-06-22T02:02:01.272Z,4.57
2017-06-22T02:04:27.486Z,4.73
2017-06-22T02:06:53.500Z,5.23
2017-06-22T02:09:19.506Z,4.20
2017-06-22T02:11:45.470Z,5.07
2017-06-22T02:14:11.470Z,3.70
2017-06-22T02:16:37.470Z,4.20
2017-06-22T02:19:03.444Z,3.13
2017-06-22T02:21:29.580Z,4.10
2017-06-22T02:23:55.546Z,3.73
2017-06-22T02:26:21.591Z,4.07
2017-06-22T02:28:47.554Z,3.90
2017-06-22T02:31:13.530Z,4.60
2017-06-22T02:33:39.530Z,4.00
2017-06-22T02:36:05.530Z,3.80
2017-06-22T02:38:31.546Z,4.00
2017-06-22T02:40:57.548Z,3.70
2017-06-22T02:43:23.566Z,7.93
2017-06-22T02:45:49.565Z,4.10
2017-06-22T02:48:15.576Z,3.40
2017-06-22T02:50:41.556Z,4.63
2017-06-22T02:53:07.604Z,3.97
2017-06-22T02:55:33.576Z,4.00
2017-06-22T02:57:59.603Z,3.53
2017-06-22T03:00:25.566Z,3.33
2017-06-22T03:02:51.590Z,4.13
2017-06-22T03:05:17.663Z,3.27
2017-06-22T03:08:09.510Z,3.30
2017-06-22T03:10:36.266Z,3.73
2017-06-22T03:13:02.247Z,4.00
2017-06-22T03:15:28.961Z,3.70
2017-06-22T03:17:55.700Z,3.30
2017-06-22T03:20:22.434Z,3.77
2017-06-22T03:22:48.429Z,4.30
2017-06-22T03:25:15.163Z,4.00
2017-06-22T03:27:41.170Z,3.40
2017-06-22T03:30:07.915Z,7.80
2017-06-22T03:32:33.930Z,3.77
2017-06-22T03:34:59.890Z,4.47
2017-06-22T03:37:25.915Z,5.20
2017-06-22T03:39:52.631Z,7.53
2017-06-22T03:42:19.382Z,4.63
2017-06-22T03:44:45.343Z,7.03
2017-06-22T03:47:11.312Z,5.20
2017-06-22T03:49:37.314Z,4.33
2017-06-22T03:52:03.295Z,5.40
2017-06-22T03:54:29.347Z,4.83
2017-06-22T03:56:55.314Z,4.70
2017-06-22T03:59:22.103Z,4.77
2017-06-22T04:01:48.090Z,4.50
2017-06-22T04:04:14.087Z,4.33
2017-06-22T04:06:40.090Z,4.73
2017-06-22T04:09:06.123Z,3.37
2017-06-22T04:11:32.108Z,4.00
2017-06-22T04:13:58.080Z,3.87
2017-06-22T04:16:24.078Z,5.10
2017-06-22T04:18:50.054Z,4.37
2017-06-22T04:21:16.086Z,4.00
2017-06-22T04:23:42.062Z,5.63
2017-06-22T04:26:08.045Z,4.17
2017-06-22T04:28:34.083Z,6.00
2017-06-22T04:31:00.099Z,8.77
2017-06-22T04:33:26.106Z,4.00
2017-06-22T04:35:52.112Z,4.20
2017-06-22T04:38:18.094Z,7.00
2017-06-22T04:40:44.839Z,5.00
2017-06-22T04:43:10.821Z,6.73
2017-06-22T04:45:37.587Z,4.50
2017-06-22T04:48:03.554Z,4.00
2017-06-22T04:50:30.296Z,4.80
2017-06-22T04:52:56.302Z,5.00
2017-06-22T04:55:23.022Z,4.07
2017-06-22T04:57:49.778Z,4.37
2017-06-22T05:00:15.754Z,4.20
2017-06-22T05:02:41.798Z,4.00
2017-06-22T05:05:07.802Z,3.50
2017-06-22T05:07:34.531Z,4.47
2017-06-22T05:10:00.575Z,4.97
2017-06-22T05:12:26.582Z,4.40
2017-06-22T05:14:52.563Z,4.87
2017-06-22T05:17:19.316Z,3.63
2017-06-22T05:19:45.400Z,7.80
2017-06-22T05:22:11.391Z,3.73
2017-06-22T05:24:37.399Z,2.87
2017-06-22T05:27:03.389Z,4.23
2017-06-22T05:29:30.143Z,3.97
2017-06-22T05:31:56.161Z,3.57
2017-06-22T05:34:22.208Z,4.40
2017-06-22T05:36:48.215Z,4.13
2017-06-22T05:39:14.678Z,3.10
2017-06-22T05:41:40.683Z,3.57
2017-06-22T05:44:06.731Z,4.07
2017-06-22T05:46:32.799Z,4.30
2017-06-22T05:48:58.806Z,4.00
2017-06-22T05:51:25.562Z,5.53
2017-06-22T05:53:51.759Z,5.60
2017-06-22T05:56:17.789Z,4.50
2017-06-22T05:58:43.814Z,4.50
2017-06-22T06:01:09.788Z,6.83
2017-06-22T06:03:35.763Z,4.97
2017-06-22T06:06:01.787Z,4.80
2017-06-22T06:08:28.515Z,4.93
2017-06-22T06:10:55.227Z,4.00
2017-06-22T06:13:21.238Z,6.90
2017-06-22T06:15:47.199Z,7.00
2017-06-22T06:18:13.211Z,6.17
2017-06-22T06:20:39.217Z,5.20
2017-06-22T06:23:05.266Z,6.53
2017-06-22T06:25:31.308Z,9.93
2017-06-22T06:27:57.271Z,4.83
2017-06-22T06:30:23.286Z,7.17
2017-06-22T06:32:49.316Z,6.40
2017-06-22T06:35:16.061Z,5.03
2017-06-22T06:37:42.038Z,7.10
2017-06-22T06:40:08.139Z,4.43
2017-06-22T06:42:34.207Z,10.30
2017-06-22T06:45:00.231Z,4.30
2017-06-22T06:47:26.266Z,5.63
2017-06-22T06:49:52.226Z,6.53
2017-06-22T06:52:18.239Z,4.20
2017-06-22T06:54:44.223Z,4.60
2017-06-22T06:57:10.988Z,6.03
2017-06-22T06:59:36.966Z,5.83
2017-06-22T07:02:02.967Z,7.00
2017-06-22T07:04:29.795Z,4.47
2017-06-22T07:06:55.766Z,7.20
2017-06-22T07:09:21.771Z,4.23
2017-06-22T07:11:47.767Z,4.77
2017-06-22T07:14:13.758Z,5.90
2017-06-22T07:16:39.774Z,5.67
2017-06-22T07:19:05.750Z,5.30
2017-06-22T07:21:31.718Z,7.90
2017-06-22T07:23:57.806Z,4.63
2017-06-22T07:26:23.837Z,7.60
2017-06-22T07:28:49.865Z,6.00
2017-06-22T07:31:15.831Z,7.63
2017-06-22T07:33:43.019Z,6.87
2017-06-22T07:36:09.087Z,5.57
2017-06-22T07:38:35.066Z,7.70
2017-06-22T07:41:01.087Z,5.93
2017-06-22T07:43:27.803Z,5.17
2017-06-22T07:45:53.810Z,6.40
2017-06-22T07:48:19.775Z,5.13
2017-06-22T07:50:45.784Z,8.27
2017-06-22T07:53:11.803Z,14.30
2017-06-22T07:55:37.817Z,6.27
2017-06-22T07:58:03.811Z,7.07
2017-06-22T08:00:29.838Z,7.70
2017-06-22T08:02:56.183Z,7.17
2017-06-22T08:05:22.179Z,7.20
2017-06-22T08:07:48.183Z,5.30
2017-06-22T08:10:14.160Z,10.67
2017-06-22T08:12:40.147Z,8.27
2017-06-22T08:15:06.161Z,6.03
2017-06-22T08:17:32.270Z,6.00
2017-06-22T08:19:58.235Z,7.40
2017-06-22T08:22:24.231Z,6.30
2017-06-22T08:24:50.230Z,8.23
2017-06-22T08:27:16.198Z,6.30
2017-06-22T08:29:42.224Z,6.07
2017-06-22T08:32:08.934Z,8.13
2017-06-22T08:34:34.904Z,6.00
2017-06-22T08:37:00.960Z,9.10
2017-06-22T08:39:26.926Z,7.17
2017-06-22T08:41:52.938Z,6.50
2017-06-22T08:44:18.898Z,6.17
2017-06-22T08:46:45.600Z,6.50
2017-06-22T08:49:11.634Z,6.63
2017-06-22T08:51:37.603Z,7.13
2017-06-22T08:54:03.626Z,6.97
2017-06-22T08:56:29.586Z,9.00
2017-06-22T08:58:55.551Z,6.40
2017-06-22T09:01:21.567Z,6.67
2017-06-22T09:03:48.322Z,7.83
2017-06-22T09:06:14.341Z,9.83
2017-06-22T09:08:40.365Z,7.27
2017-06-22T09:11:06.439Z,7.93
2017-06-22T09:13:33.142Z,6.60
2017-06-22T09:15:59.203Z,6.47
2017-06-22T09:18:25.162Z,6.47
2017-06-22T09:20:51.190Z,6.07
2017-06-22T09:23:17.186Z,10.40
2017-06-22T09:25:43.161Z,5.90
2017-06-22T09:28:09.159Z,6.50
2017-06-22T09:30:35.143Z,6.47
2017-06-22T09:33:01.155Z,6.60
2017-06-22T09:35:27.162Z,7.00
2017-06-22T09:37:53.126Z,7.37
2017-06-22T09:40:19.878Z,7.10
2017-06-22T09:42:45.854Z,7.40
2017-06-22T09:45:12.613Z,6.50
2017-06-22T09:47:38.635Z,7.87
2017-06-22T09:50:04.601Z,7.10
2017-06-22T09:52:31.306Z,7.07
2017-06-22T09:54:57.310Z,7.20
2017-06-22T09:57:23.275Z,6.50
2017-06-22T09:59:49.322Z,7.00
2017-06-22T10:02:15.286Z,6.20
2017-06-22T10:04:41.299Z,7.20
2017-06-22T10:07:07.351Z,6.97
2017-06-22T10:09:33.310Z,6.70
2017-06-22T10:11:59.374Z,6.43
2017-06-22T10:14:25.384Z,7.53
2017-06-22T10:16:51.348Z,7.17
2017-06-22T10:19:17.355Z,7.37
2017-06-22T10:21:44.069Z,8.00
2017-06-22T10:24:10.059Z,6.83
2017-06-22T10:26:36.086Z,6.83
2017-06-22T10:29:02.042Z,6.07
2017-06-22T10:31:28.006Z,6.83
2017-06-22T10:33:54.023Z,7.10
2017-06-22T10:36:20.734Z,7.77
2017-06-22T10:38:46.746Z,6.80
2017-06-22T10:41:12.767Z,8.90
2017-06-22T10:43:39.502Z,8.70
2017-06-22T10:46:05.564Z,9.07
2017-06-22T10:48:31.522Z,7.67
2017-06-22T10:50:58.230Z,7.97
2017-06-22T10:53:24.226Z,8.77
2017-06-22T10:55:50.242Z,7.13
2017-06-22T10:58:16.247Z,7.80
2017-06-22T11:00:42.223Z,8.57
2017-06-22T11:03:08.258Z,8.53
2017-06-22T11:05:34.227Z,7.83
2017-06-22T11:08:00.198Z,8.57
2017-06-22T11:10:26.951Z,9.53
2017-06-22T11:12:52.915Z,8.40
2017-06-22T11:15:18.923Z,10.27
2017-06-22T11:17:44.898Z,8.63
2017-06-22T11:20:10.923Z,8.90
2017-06-22T11:22:36.897Z,8.90
2017-06-22T11:25:02.947Z,8.70
2017-06-22T11:27:28.910Z,9.83
2017-06-22T11:29:54.883Z,8.57
2017-06-22T11:32:20.917Z,9.17
2017-06-22T11:34:47.633Z,9.40
2017-06-22T11:37:13.668Z,8.50
2017-06-22T11:39:40.434Z,8.43
2017-06-22T11:42:06.462Z,11.90
2017-06-22T11:44:32.434Z,10.13
2017-06-22T11:46:58.455Z,9.20
2017-06-22T11:49:24.422Z,9.70
2017-06-22T11:51:50.398Z,9.30
2017-06-22T11:54:16.910Z,8.90
2017-06-22T11:56:42.951Z,9.37
2017-06-22T11:59:08.950Z,8.10
2017-06-22T12:01:34.967Z,8.43
2017-06-22T12:04:00.935Z,9.03
2017-06-22T12:06:26.954Z,10.37
2017-06-22T12:08:52.923Z,9.50
2017-06-22T12:11:18.894Z,8.57
2017-06-22T12:13:44.923Z,8.57
2017-06-22T12:16:11.647Z,9.17
2017-06-22T12:18:37.606Z,9.17
2017-06-22T12:21:04.375Z,8.90
2017-06-22T12:23:30.351Z,9.03
2017-06-22T12:25:57.071Z,9.13
2017-06-22T12:28:23.832Z,10.03
2017-06-22T12:30:49.798Z,10.17
2017-06-22T12:33:16.566Z,9.50
2017-06-22T12:35:42.546Z,9.73
2017-06-22T12:38:09.258Z,10.10
2017-06-22T12:40:35.260Z,10.50
2017-06-22T12:43:01.238Z,8.93
2017-06-22T12:45:27.255Z,10.47
2017-06-22T12:47:53.254Z,9.90
2017-06-22T12:50:19.246Z,10.10
2017-06-22T12:52:45.243Z,10.10
2017-06-22T12:55:11.216Z,10.30
2017-06-22T12:57:37.218Z,10.80
2017-06-22T13:00:03.226Z,10.10
2017-06-22T13:02:29.256Z,10.20
2017-06-22T13:04:55.998Z,10.93
2017-06-22T13:07:22.028Z,12.00
2017-06-22T13:09:48.034Z,10.93
2017-06-22T13:12:14.013Z,10.43
2017-06-22T13:14:40.778Z,10.67
2017-06-22T13:17:06.748Z,12.00
2017-06-22T13:19:32.770Z,11.47
2017-06-22T13:21:58.730Z,9.80
2017-06-22T13:24:25.434Z,10.83
2017-06-22T13:26:51.469Z,11.00
2017-06-22T13:29:18.182Z,11.17
2017-06-22T13:31:44.931Z,10.90
2017-06-22T13:34:10.963Z,11.50
2017-06-22T13:36:36.942Z,11.53
2017-06-22T13:39:03.654Z,10.70
2017-06-22T13:41:30.422Z,10.23
2017-06-22T13:43:56.379Z,11.50
2017-06-22T13:46:22.395Z,11.00
2017-06-22T13:48:49.102Z,11.23
2017-06-22T13:51:15.066Z,12.30
2017-06-22T13:53:41.089Z,11.07
2017-06-22T13:56:07.062Z,12.27
2017-06-22T13:58:33.803Z,12.07
2017-06-22T14:00:59.810Z,11.30
2017-06-22T14:03:25.845Z,12.37
2017-06-22T14:05:51.814Z,12.30
2017-06-22T14:08:18.515Z,11.87
2017-06-22T14:10:44.531Z,12.03
2017-06-22T14:13:10.587Z,12.30
2017-06-22T14:15:36.632Z,11.60
2017-06-22T14:18:02.650Z,11.90
2017-06-22T14:20:28.668Z,11.47
2017-06-22T14:22:54.635Z,11.40
2017-06-22T14:25:20.656Z,11.40
2017-06-22T14:27:46.627Z,11.97
2017-06-22T14:30:12.587Z,11.80
2017-06-22T14:32:38.615Z,11.00
2017-06-22T14:35:04.602Z,11.23
2017-06-22T14:37:30.557Z,10.67
2017-06-22T14:39:56.563Z,10.23
2017-06-22T14:42:22.534Z,11.17
2017-06-22T14:44:48.543Z,11.47
2017-06-22T14:47:14.516Z,10.40
2017-06-22T14:49:40.482Z,13.60
2017-06-22T14:52:07.286Z,27.90
2017-06-22T14:54:33.242Z,23.00
2017-06-22T14:57:06.192Z,20.73
2017-06-22T14:59:32.911Z,14.00
2017-06-22T15:01:59.761Z,20.93
2017-06-22T15:04:25.725Z,10.63
2017-06-22T15:06:51.711Z,8.33
2017-06-22T15:09:17.721Z,11.03
2017-06-22T15:11:43.707Z,13.10
2017-06-22T15:14:09.726Z,10.60
2017-06-22T15:16:35.694Z,10.13
2017-06-22T15:19:02.463Z,14.97
2017-06-22T15:21:28.421Z,10.07
2017-06-22T15:23:54.399Z,18.00
2017-06-22T15:26:20.422Z,10.73
2017-06-22T15:28:46.403Z,9.40
2017-06-22T15:31:12.431Z,8.93
2017-06-22T15:33:38.402Z,8.93
2017-06-22T15:36:04.419Z,8.30
2017-06-22T15:38:30.434Z,9.77
2017-06-22T15:40:56.394Z,8.90
2017-06-22T15:43:22.378Z,8.07
2017-06-22T15:45:48.402Z,10.93
2017-06-22T15:48:14.430Z,10.63
2017-06-22T15:50:41.160Z,8.40
2017-06-22T15:53:07.142Z,10.80
2017-06-22T15:55:33.255Z,7.23
2017-06-22T15:57:59.250Z,7.83
2017-06-22T16:00:25.318Z,8.80
2017-06-22T16:02:51.287Z,10.57
2017-06-22T16:05:17.251Z,8.13
2017-06-22T16:07:43.294Z,9.40
2017-06-22T16:10:09.277Z,6.97
2017-06-22T16:12:35.289Z,7.57
2017-06-22T16:15:01.319Z,10.30
2017-06-22T16:17:27.303Z,14.13
2017-06-22T16:19:53.334Z,15.00
2017-06-22T16:22:19.307Z,12.00
2017-06-22T16:24:45.298Z,21.50
2017-06-22T16:27:11.363Z,18.83
2017-06-22T16:29:37.335Z,9.23
2017-06-22T16:32:03.375Z,8.80
2017-06-22T16:34:29.414Z,11.70
2017-06-22T16:36:55.476Z,10.03
2017-06-22T16:39:21.430Z,8.77
2017-06-22T16:41:47.406Z,10.20
2017-06-22T16:44:13.527Z,10.03
2017-06-22T16:46:39.493Z,11.73
2017-06-22T16:49:05.481Z,11.07
2017-06-22T16:51:31.507Z,13.47
2017-06-22T16:53:57.474Z,9.83
2017-06-22T16:56:23.479Z,9.80
2017-06-22T16:58:49.455Z,12.80
2017-06-22T17:01:15.579Z,11.73
2017-06-22T17:03:41.590Z,13.10
2017-06-22T17:06:07.566Z,13.53
2017-06-22T17:08:33.587Z,10.20
2017-06-22T17:10:59.579Z,10.00
2017-06-22T17:13:25.613Z,11.87
2017-06-22T17:15:51.587Z,10.23
2017-06-22T17:18:17.576Z,10.90
2017-06-22T17:20:43.842Z,9.23
2017-06-22T17:23:09.810Z,11.90
2017-06-22T17:25:35.841Z,8.87
2017-06-22T17:28:02.601Z,17.33
2017-06-22T17:30:28.669Z,12.37
2017-06-22T17:32:54.674Z,13.80
2017-06-22T17:35:20.766Z,15.13
2017-06-22T17:37:46.980Z,10.77
2017-06-22T17:40:12.958Z,10.87
2017-06-22T17:42:38.935Z,9.23
2017-06-22T17:45:04.946Z,11.23
2017-06-22T17:47:31.702Z,9.03
2017-06-22T17:49:57.965Z,7.30
2017-06-22T17:52:24.001Z,6.97
2017-06-22T17:54:50.027Z,6.83
2017-06-22T17:57:15.991Z,6.40
2017-06-22T17:59:41.958Z,5.53
2017-06-22T18:02:08.012Z,7.10
2017-06-22T18:04:34.021Z,7.23
2017-06-22T18:07:00.031Z,8.40
2017-06-22T18:09:26.080Z,7.57
2017-06-22T18:11:52.046Z,8.00
2017-06-22T18:14:18.050Z,7.80
2017-06-22T18:16:44.218Z,8.60
2017-06-22T18:19:10.214Z,8.63
2017-06-22T18:21:36.219Z,8.17
2017-06-22T18:24:02.190Z,12.93
2017-06-22T18:26:28.210Z,12.20
2017-06-22T18:28:54.967Z,10.30
2017-06-22T18:31:20.967Z,10.43
2017-06-22T18:33:46.983Z,11.50
2017-06-22T18:36:12.949Z,12.90
2017-06-22T18:38:38.970Z,10.33
2017-06-22T18:41:04.930Z,11.47
2017-06-22T18:43:30.911Z,12.97
2017-06-22T18:45:56.941Z,10.77
2017-06-22T18:48:22.914Z,13.20
2017-06-22T18:50:49.127Z,15.63
2017-06-22T18:53:15.831Z,14.10
2017-06-22T18:55:41.859Z,13.30
2017-06-22T18:58:07.818Z,13.97
2017-06-22T19:00:33.880Z,14.13
2017-06-22T19:03:00.664Z,13.10
2017-06-22T19:05:26.679Z,13.63
2017-06-22T19:07:52.675Z,13.13
2017-06-22T19:10:18.639Z,11.47
2017-06-22T19:12:45.436Z,11.00
2017-06-22T19:15:11.401Z,14.73
2017-06-22T19:17:37.394Z,14.17
2017-06-22T19:20:03.403Z,11.70
2017-06-22T19:22:29.378Z,14.90
2017-06-22T19:24:55.386Z,10.40
2017-06-22T19:27:21.395Z,9.77
2017-06-22T19:29:47.371Z,9.47
2017-06-22T19:32:13.387Z,10.23
2017-06-22T19:34:39.359Z,9.83
2017-06-22T19:37:05.326Z,8.43
2017-06-22T19:39:31.346Z,8.37
2017-06-22T19:41:57.411Z,8.63
2017-06-22T19:44:23.379Z,10.20
2017-06-22T19:46:50.085Z,7.70
2017-06-22T19:49:16.087Z,9.47
2017-06-22T19:51:42.115Z,8.77
2017-06-22T19:54:08.129Z,9.03
2017-06-22T19:56:34.843Z,9.10
2017-06-22T19:59:00.877Z,8.00
2017-06-22T20:01:26.870Z,7.80
2017-06-22T20:03:52.866Z,8.23
2017-06-22T20:06:18.915Z,9.40
2017-06-22T20:08:45.078Z,7.00
2017-06-22T20:11:11.070Z,7.60
2017-06-22T20:13:37.167Z,8.07
2017-06-22T20:16:03.170Z,7.50
2017-06-22T20:18:29.204Z,7.93
2017-06-22T20:20:55.223Z,7.87
2017-06-22T20:23:21.486Z,10.57
2017-06-22T20:25:47.453Z,13.93
2017-06-22T20:28:13.459Z,11.17
2017-06-22T20:30:39.440Z,7.47
2017-06-22T20:33:05.448Z,8.37
2017-06-22T20:35:31.427Z,8.90
2017-06-22T20:37:58.183Z,7.50
2017-06-22T20:40:24.226Z,6.63
2017-06-22T20:42:50.187Z,7.03
2017-06-22T20:45:16.194Z,8.47
2017-06-22T20:47:42.210Z,10.73
2017-06-22T20:50:08.229Z,7.77
2017-06-22T20:52:34.198Z,6.30
2017-06-22T20:55:00.207Z,7.13
2017-06-22T20:57:26.183Z,8.13
2017-06-22T20:59:52.162Z,6.30
2017-06-22T21:02:18.219Z,7.57
2017-06-22T21:04:44.189Z,6.67
2017-06-22T21:07:10.894Z,6.13
2017-06-22T21:09:36.911Z,7.70
2017-06-22T21:12:03.634Z,7.30
2017-06-22T21:14:30.373Z,7.13
2017-06-22T21:16:57.077Z,7.20
2017-06-22T21:19:23.094Z,7.20
2017-06-22T21:21:49.802Z,7.13
2017-06-22T21:24:15.766Z,7.03
2017-06-22T21:26:41.758Z,6.37
2017-06-22T21:29:07.718Z,7.00
2017-06-22T21:31:33.732Z,7.70
2017-06-22T21:33:59.734Z,7.70
2017-06-22T21:36:25.739Z,7.83
2017-06-22T21:38:51.710Z,7.57
2017-06-22T21:41:17.682Z,9.13
2017-06-22T21:43:43.763Z,7.13
2017-06-22T21:46:09.763Z,6.83
2017-06-22T21:48:35.799Z,7.00
2017-06-22T21:51:01.765Z,7.70
2017-06-22T21:53:27.733Z,22.90
2017-06-22T21:55:54.474Z,29.03
2017-06-22T21:58:21.190Z,11.70
2017-06-22T22:00:47.962Z,9.33
2017-06-22T22:03:13.954Z,9.70
2017-06-22T22:05:39.946Z,12.10
2017-06-22T22:08:07.066Z,10.80
2017-06-22T22:10:33.039Z,10.70
2017-06-22T22:12:59.029Z,11.07
2017-06-22T22:15:25.057Z,11.53
2017-06-22T22:17:51.794Z,12.70
2017-06-22T22:20:17.751Z,10.83
2017-06-22T22:22:43.789Z,12.00
2017-06-22T22:25:09.751Z,18.37
2017-06-22T22:27:35.714Z,13.57
2017-06-22T22:30:02.502Z,11.43
2017-06-22T22:32:28.470Z,11.90
2017-06-22T22:34:54.464Z,13.70
2017-06-22T22:37:20.627Z,12.27
2017-06-22T22:39:46.592Z,11.47
2017-06-22T22:42:12.542Z,11.90
2017-06-22T22:44:38.574Z,12.80
2017-06-22T22:47:04.559Z,12.43
2017-06-22T22:49:30.567Z,11.80
2017-06-22T22:51:56.904Z,13.73
2017-06-22T22:54:22.933Z,14.93
2017-06-22T22:56:49.674Z,15.97
2017-06-22T22:59:15.634Z,13.03
2017-06-22T23:01:41.626Z,15.10
2017-06-22T23:04:07.582Z,16.60
2017-06-22T23:06:33.606Z,16.40
2017-06-22T23:09:00.358Z,15.43
2017-06-22T23:11:26.395Z,13.60
2017-06-22T23:13:52.371Z,15.60
2017-06-22T23:16:18.417Z,17.90
2017-06-22T23:18:44.415Z,15.47
2017-06-22T23:21:10.381Z,15.83
2017-06-22T23:23:36.395Z,14.63
2017-06-22T23:26:02.350Z,15.90
2017-06-22T23:28:28.351Z,15.37
2017-06-22T23:30:54.324Z,12.73
2017-06-22T23:33:20.286Z,13.43
2017-06-22T23:35:46.285Z,13.27
2017-06-22T23:38:12.250Z,14.70
2017-06-22T23:40:38.274Z,13.43
2017-06-22T23:43:04.230Z,16.83
2017-06-22T23:45:30.234Z,13.90
2017-06-22T23:47:56.246Z,16.07
2017-06-22T23:50:22.208Z,15.70
2017-06-22T23:52:48.201Z,15.40
2017-06-22T23:55:14.200Z,21.20
2017-06-22T23:57:40.302Z,15.37
